sensor_id;sensor_type;location;lat;lon;timestamp;P1;P2;P0
69123;PMS5003;56232;53.384;-2.732;2022-12-07T00:00:00;25;23;
69123;PMS5003;56232;53.384;-2.732;2022-12-07T00:02:25;25;20;
69123;PMS5003;56232;53.384;-2.732;2022-12-07T00:04:51;23;22;
69123;PMS5003;56232;53.384;-2.732;2022-12-07T00:07:16;24;22;
69123;PMS5003;56232;53.384;-2.732;2022-12-07T00:09:42;21;20;
69123;PMS5003;56232;53.384;-2.732;2022-12-07T00:12:08;26;23;
69123;PMS5003;56232;53.384;-2.732;2022-12-07T00:14:33;18;15;
69123;PMS5003;56232;53.384;-2.732;2022-12-07T00:16:58;16;15;
69123;PMS5003;56232;53.384;-2.732;2022-12-07T00:19:24;23;19;
69123;PMS5003;56232;53.384;-2.732;2022-12-07T00:21:49;19;15;
69123;PMS5003;56232;53.384;-2.732;2022-12-07T00:24:14;21;20;
69123;PMS5003;56232;53.384;-2.732;2022-12-07T00:26:41;21;19;
69123;PMS5003;56232;53.384;-2.732;2022-12-07T00:29:07;16;15;
69123;PMS5003;56232;53.384;-2.732;2022-12-07T00:31:31;16;16;
69123;PMS5003;56232;53.384;-2.732;2022-12-07T00:33:57;13;12;
69123;PMS5003;56232;53.384;-2.732;2022-12-07T00:36:22;19;17;
69123;PMS5003;56232;53.384;-2.732;2022-12-07T00:38:47;17;16;
69123;PMS5003;56232;53.384;-2.732;2022-12-07T00:41:14;14;13;
69123;PMS5003;56232;53.384;-2.732;2022-12-07T00:43:40;14;12;
69123;PMS5003;56232;53.384;-2.732;2022-12-07T00:46:04;20;14;
69123;PMS5003;56232;53.384;-2.732;2022-12-07T00:48:30;12;12;
69123;PMS5003;56232;53.384;-2.732;2022-12-07T00:50:55;15;14;
69123;PMS5003;56232;53.384;-2.732;2022-12-07T00:53:21;17;13;
69123;PMS5003;56232;53.384;-2.732;2022-12-07T00:55:46;18;13;
69123;PMS5003;56232;53.384;-2.732;2022-12-07T00:58:11;15;14;
69123;PMS5003;56232;53.384;-2.732;2022-12-07T01:00:37;16;13;
69123;PMS5003;56232;53.384;-2.732;2022-12-07T01:03:03;14;14;
69123;PMS5003;56232;53.384;-2.732;2022-12-07T01:05:28;14;14;
69123;PMS5003;56232;53.384;-2.732;2022-12-07T01:07:54;12;12;
69123;PMS5003;56232;53.384;-2.732;2022-12-07T01:10:19;13;13;
69123;PMS5003;56232;53.384;-2.732;2022-12-07T01:12:45;15;14;
69123;PMS5003;56232;53.384;-2.732;2022-12-07T01:15:11;15;15;
69123;PMS5003;56232;53.384;-2.732;2022-12-07T01:17:36;14;13;
69123;PMS5003;56232;53.384;-2.732;2022-12-07T01:20:03;18;14;
69123;PMS5003;56232;53.384;-2.732;2022-12-07T01:22:28;11;11;
69123;PMS5003;56232;53.384;-2.732;2022-12-07T01:24:53;13;13;
69123;PMS5003;56232;53.384;-2.732;2022-12-07T01:27:18;11;11;
69123;PMS5003;56232;53.384;-2.732;2022-12-07T01:29:43;13;11;
69123;PMS5003;56232;53.384;-2.732;2022-12-07T01:32:09;14;14;
69123;PMS5003;56232;53.384;-2.732;2022-12-07T01:34:34;14;13;
69123;PMS5003;56232;53.384;-2.732;2022-12-07T01:37:00;13;13;
69123;PMS5003;56232;53.384;-2.732;2022-12-07T01:39:25;17;15;
69123;PMS5003;56232;53.384;-2.732;2022-12-07T01:41:51;13;12;
69123;PMS5003;56232;53.384;-2.732;2022-12-07T01:44:19;13;12;
69123;PMS5003;56232;53.384;-2.732;2022-12-07T01:46:43;12;11;
69123;PMS5003;56232;53.384;-2.732;2022-12-07T01:49:08;14;13;
69123;PMS5003;56232;53.384;-2.732;2022-12-07T01:51:33;14;12;
69123;PMS5003;56232;53.384;-2.732;2022-12-07T01:53:59;13;12;
69123;PMS5003;56232;53.384;-2.732;2022-12-07T01:56:24;14;13;
69123;PMS5003;56232;53.384;-2.732;2022-12-07T01:58:49;13;12;
69123;PMS5003;56232;53.384;-2.732;2022-12-07T02:01:14;13;11;
69123;PMS5003;56232;53.384;-2.732;2022-12-07T02:03:41;18;15;
69123;PMS5003;56232;53.384;-2.732;2022-12-07T02:06:07;11;10;
69123;PMS5003;56232;53.384;-2.732;2022-12-07T02:08:31;12;11;
69123;PMS5003;56232;53.384;-2.732;2022-12-07T02:10:57;12;12;
69123;PMS5003;56232;53.384;-2.732;2022-12-07T02:13:23;10;9;
69123;PMS5003;56232;53.384;-2.732;2022-12-07T02:15:53;12;10;
69123;PMS5003;56232;53.384;-2.732;2022-12-07T02:18:14;12;11;
69123;PMS5003;56232;53.384;-2.732;2022-12-07T02:20:39;11;9;
69123;PMS5003;56232;53.384;-2.732;2022-12-07T02:25:33;9;9;
69123;PMS5003;56232;53.384;-2.732;2022-12-07T02:27:56;10;10;
69123;PMS5003;56232;53.384;-2.732;2022-12-07T02:30:22;10;10;
69123;PMS5003;56232;53.384;-2.732;2022-12-07T02:32:49;6;6;
69123;PMS5003;56232;53.384;-2.732;2022-12-07T02:35:15;11;10;
69123;PMS5003;56232;53.384;-2.732;2022-12-07T02:37:40;13;12;
69123;PMS5003;56232;53.384;-2.732;2022-12-07T02:40:05;11;10;
69123;PMS5003;56232;53.384;-2.732;2022-12-07T02:42:31;12;11;
69123;PMS5003;56232;53.384;-2.732;2022-12-07T02:44:55;9;9;
69123;PMS5003;56232;53.384;-2.732;2022-12-07T02:47:20;9;7;
69123;PMS5003;56232;53.384;-2.732;2022-12-07T02:49:46;12;9;
69123;PMS5003;56232;53.384;-2.732;2022-12-07T02:52:12;13;11;
69123;PMS5003;56232;53.384;-2.732;2022-12-07T02:54:37;19;12;
69123;PMS5003;56232;53.384;-2.732;2022-12-07T02:57:05;12;11;
69123;PMS5003;56232;53.384;-2.732;2022-12-07T02:59:30;10;10;
69123;PMS5003;56232;53.384;-2.732;2022-12-07T03:01:55;12;11;
69123;PMS5003;56232;53.384;-2.732;2022-12-07T03:04:22;13;12;
69123;PMS5003;56232;53.384;-2.732;2022-12-07T03:06:47;16;14;
69123;PMS5003;56232;53.384;-2.732;2022-12-07T03:09:11;12;11;
69123;PMS5003;56232;53.384;-2.732;2022-12-07T03:11:36;13;13;
69123;PMS5003;56232;53.384;-2.732;2022-12-07T03:14:01;12;12;
69123;PMS5003;56232;53.384;-2.732;2022-12-07T03:16:26;10;10;
69123;PMS5003;56232;53.384;-2.732;2022-12-07T03:18:52;13;12;
69123;PMS5003;56232;53.384;-2.732;2022-12-07T03:21:17;16;12;
69123;PMS5003;56232;53.384;-2.732;2022-12-07T03:23:42;12;10;
69123;PMS5003;56232;53.384;-2.732;2022-12-07T03:26:08;10;9;
69123;PMS5003;56232;53.384;-2.732;2022-12-07T03:28:33;11;10;
69123;PMS5003;56232;53.384;-2.732;2022-12-07T03:30:59;11;11;
69123;PMS5003;56232;53.384;-2.732;2022-12-07T03:33:24;11;10;
69123;PMS5003;56232;53.384;-2.732;2022-12-07T03:35:49;11;11;
69123;PMS5003;56232;53.384;-2.732;2022-12-07T03:38:15;11;10;
69123;PMS5003;56232;53.384;-2.732;2022-12-07T03:40:41;11;11;
69123;PMS5003;56232;53.384;-2.732;2022-12-07T03:43:05;9;9;
69123;PMS5003;56232;53.384;-2.732;2022-12-07T03:45:32;8;8;
69123;PMS5003;56232;53.384;-2.732;2022-12-07T03:47:59;9;9;
69123;PMS5003;56232;53.384;-2.732;2022-12-07T03:50:25;8;8;
69123;PMS5003;56232;53.384;-2.732;2022-12-07T03:52:47;8;8;
69123;PMS5003;56232;53.384;-2.732;2022-12-07T03:55:14;9;9;
69123;PMS5003;56232;53.384;-2.732;2022-12-07T03:57:37;11;9;
69123;PMS5003;56232;53.384;-2.732;2022-12-07T04:00:05;12;10;
69123;PMS5003;56232;53.384;-2.732;2022-12-07T04:02:27;9;8;
69123;PMS5003;56232;53.384;-2.732;2022-12-07T04:04:53;10;9;
69123;PMS5003;56232;53.384;-2.732;2022-12-07T04:07:18;8;8;
69123;PMS5003;56232;53.384;-2.732;2022-12-07T04:09:44;10;10;
69123;PMS5003;56232;53.384;-2.732;2022-12-07T04:12:10;13;10;
69123;PMS5003;56232;53.384;-2.732;2022-12-07T04:14:35;9;8;
69123;PMS5003;56232;53.384;-2.732;2022-12-07T04:17:01;12;10;
69123;PMS5003;56232;53.384;-2.732;2022-12-07T04:19:27;6;6;
69123;PMS5003;56232;53.384;-2.732;2022-12-07T04:21:52;9;8;
69123;PMS5003;56232;53.384;-2.732;2022-12-07T04:24:17;10;10;
69123;PMS5003;56232;53.384;-2.732;2022-12-07T04:26:43;7;7;
69123;PMS5003;56232;53.384;-2.732;2022-12-07T04:29:09;8;7;
69123;PMS5003;56232;53.384;-2.732;2022-12-07T04:31:34;7;7;
69123;PMS5003;56232;53.384;-2.732;2022-12-07T04:33:59;4;4;
69123;PMS5003;56232;53.384;-2.732;2022-12-07T04:36:24;8;8;
69123;PMS5003;56232;53.384;-2.732;2022-12-07T04:38:52;7;7;
69123;PMS5003;56232;53.384;-2.732;2022-12-07T04:41:16;9;8;
69123;PMS5003;56232;53.384;-2.732;2022-12-07T04:43:42;7;7;
69123;PMS5003;56232;53.384;-2.732;2022-12-07T04:46:07;7;5;
69123;PMS5003;56232;53.384;-2.732;2022-12-07T04:48:32;7;5;
69123;PMS5003;56232;53.384;-2.732;2022-12-07T04:50:57;8;8;
69123;PMS5003;56232;53.384;-2.732;2022-12-07T04:53:22;8;7;
69123;PMS5003;56232;53.384;-2.732;2022-12-07T04:55:47;8;8;
69123;PMS5003;56232;53.384;-2.732;2022-12-07T04:58:13;7;5;
69123;PMS5003;56232;53.384;-2.732;2022-12-07T05:00:38;7;7;
69123;PMS5003;56232;53.384;-2.732;2022-12-07T05:03:02;5;4;
69123;PMS5003;56232;53.384;-2.732;2022-12-07T05:05:28;5;5;
69123;PMS5003;56232;53.384;-2.732;2022-12-07T05:07:53;8;8;
69123;PMS5003;56232;53.384;-2.732;2022-12-07T05:10:18;5;5;
69123;PMS5003;56232;53.384;-2.732;2022-12-07T05:12:43;8;7;
69123;PMS5003;56232;53.384;-2.732;2022-12-07T05:15:08;8;7;
69123;PMS5003;56232;53.384;-2.732;2022-12-07T05:17:33;7;7;
69123;PMS5003;56232;53.384;-2.732;2022-12-07T05:19:58;7;7;
69123;PMS5003;56232;53.384;-2.732;2022-12-07T05:22:23;7;7;
69123;PMS5003;56232;53.384;-2.732;2022-12-07T05:24:48;4;4;
69123;PMS5003;56232;53.384;-2.732;2022-12-07T05:27:13;7;7;
69123;PMS5003;56232;53.384;-2.732;2022-12-07T05:29:39;9;9;
69123;PMS5003;56232;53.384;-2.732;2022-12-07T05:32:03;7;5;
69123;PMS5003;56232;53.384;-2.732;2022-12-07T05:34:28;7;7;
69123;PMS5003;56232;53.384;-2.732;2022-12-07T05:36:53;5;5;
69123;PMS5003;56232;53.384;-2.732;2022-12-07T05:39:19;8;8;
69123;PMS5003;56232;53.384;-2.732;2022-12-07T05:41:44;7;7;
69123;PMS5003;56232;53.384;-2.732;2022-12-07T05:44:09;11;8;
69123;PMS5003;56232;53.384;-2.732;2022-12-07T05:46:35;10;9;
69123;PMS5003;56232;53.384;-2.732;2022-12-07T05:49:00;6;6;
69123;PMS5003;56232;53.384;-2.732;2022-12-07T05:51:26;7;7;
69123;PMS5003;56232;53.384;-2.732;2022-12-07T05:53:51;5;5;
69123;PMS5003;56232;53.384;-2.732;2022-12-07T05:56:16;8;8;
69123;PMS5003;56232;53.384;-2.732;2022-12-07T05:58:41;11;9;
69123;PMS5003;56232;53.384;-2.732;2022-12-07T06:01:06;11;9;
69123;PMS5003;56232;53.384;-2.732;2022-12-07T06:03:31;8;7;
69123;PMS5003;56232;53.384;-2.732;2022-12-07T06:05:57;6;6;
69123;PMS5003;56232;53.384;-2.732;2022-12-07T06:08:23;8;6;
69123;PMS5003;56232;53.384;-2.732;2022-12-07T06:10:48;8;5;
69123;PMS5003;56232;53.384;-2.732;2022-12-07T06:13:13;5;4;
69123;PMS5003;56232;53.384;-2.732;2022-12-07T06:15:40;6;6;
69123;PMS5003;56232;53.384;-2.732;2022-12-07T06:18:05;6;6;
69123;PMS5003;56232;53.384;-2.732;2022-12-07T06:20:30;7;5;
69123;PMS5003;56232;53.384;-2.732;2022-12-07T06:22:56;4;4;
69123;PMS5003;56232;53.384;-2.732;2022-12-07T06:25:21;4;4;
69123;PMS5003;56232;53.384;-2.732;2022-12-07T06:27:47;4;4;
69123;PMS5003;56232;53.384;-2.732;2022-12-07T06:30:12;5;4;
69123;PMS5003;56232;53.384;-2.732;2022-12-07T06:32:38;6;6;
69123;PMS5003;56232;53.384;-2.732;2022-12-07T06:35:03;5;5;
69123;PMS5003;56232;53.384;-2.732;2022-12-07T06:37:28;5;5;
69123;PMS5003;56232;53.384;-2.732;2022-12-07T06:39:54;5;5;
69123;PMS5003;56232;53.384;-2.732;2022-12-07T06:42:20;4;4;
69123;PMS5003;56232;53.384;-2.732;2022-12-07T06:44:45;8;8;
69123;PMS5003;56232;53.384;-2.732;2022-12-07T06:47:11;4;4;
69123;PMS5003;56232;53.384;-2.732;2022-12-07T06:49:36;5;4;
69123;PMS5003;56232;53.384;-2.732;2022-12-07T06:52:02;6;4;
69123;PMS5003;56232;53.384;-2.732;2022-12-07T06:54:27;4;4;
69123;PMS5003;56232;53.384;-2.732;2022-12-07T06:56:53;4;4;
69123;PMS5003;56232;53.384;-2.732;2022-12-07T06:59:18;8;6;
69123;PMS5003;56232;53.384;-2.732;2022-12-07T07:01:44;5;5;
69123;PMS5003;56232;53.384;-2.732;2022-12-07T07:04:09;4;4;
69123;PMS5003;56232;53.384;-2.732;2022-12-07T07:06:35;5;5;
69123;PMS5003;56232;53.384;-2.732;2022-12-07T07:09:00;5;5;
69123;PMS5003;56232;53.384;-2.732;2022-12-07T07:11:26;5;5;
69123;PMS5003;56232;53.384;-2.732;2022-12-07T07:13:51;6;6;
69123;PMS5003;56232;53.384;-2.732;2022-12-07T07:16:17;5;5;
69123;PMS5003;56232;53.384;-2.732;2022-12-07T07:18:42;5;5;
69123;PMS5003;56232;53.384;-2.732;2022-12-07T07:21:07;6;5;
69123;PMS5003;56232;53.384;-2.732;2022-12-07T07:23:32;5;5;
69123;PMS5003;56232;53.384;-2.732;2022-12-07T07:25:58;8;8;
69123;PMS5003;56232;53.384;-2.732;2022-12-07T07:28:24;10;5;
69123;PMS5003;56232;53.384;-2.732;2022-12-07T07:30:49;8;5;
69123;PMS5003;56232;53.384;-2.732;2022-12-07T07:33:15;5;4;
69123;PMS5003;56232;53.384;-2.732;2022-12-07T07:35:41;4;4;
69123;PMS5003;56232;53.384;-2.732;2022-12-07T07:38:06;6;6;
69123;PMS5003;56232;53.384;-2.732;2022-12-07T07:40:32;9;9;
69123;PMS5003;56232;53.384;-2.732;2022-12-07T07:42:57;8;8;
69123;PMS5003;56232;53.384;-2.732;2022-12-07T07:45:23;13;12;
69123;PMS5003;56232;53.384;-2.732;2022-12-07T07:47:48;11;11;
69123;PMS5003;56232;53.384;-2.732;2022-12-07T07:50:14;11;9;
69123;PMS5003;56232;53.384;-2.732;2022-12-07T07:52:40;11;10;
69123;PMS5003;56232;53.384;-2.732;2022-12-07T07:55:05;9;9;
69123;PMS5003;56232;53.384;-2.732;2022-12-07T07:57:31;10;10;
69123;PMS5003;56232;53.384;-2.732;2022-12-07T07:59:56;10;9;
69123;PMS5003;56232;53.384;-2.732;2022-12-07T08:02:22;10;9;
69123;PMS5003;56232;53.384;-2.732;2022-12-07T08:04:47;8;8;
69123;PMS5003;56232;53.384;-2.732;2022-12-07T08:07:13;8;6;
69123;PMS5003;56232;53.384;-2.732;2022-12-07T08:09:38;4;4;
69123;PMS5003;56232;53.384;-2.732;2022-12-07T08:12:04;4;4;
69123;PMS5003;56232;53.384;-2.732;2022-12-07T08:14:28;5;4;
69123;PMS5003;56232;53.384;-2.732;2022-12-07T08:16:54;4;4;
69123;PMS5003;56232;53.384;-2.732;2022-12-07T08:19:19;6;6;
69123;PMS5003;56232;53.384;-2.732;2022-12-07T08:21:45;9;8;
69123;PMS5003;56232;53.384;-2.732;2022-12-07T08:24:10;6;6;
69123;PMS5003;56232;53.384;-2.732;2022-12-07T08:26:36;6;6;
69123;PMS5003;56232;53.384;-2.732;2022-12-07T08:29:01;8;8;
69123;PMS5003;56232;53.384;-2.732;2022-12-07T08:31:27;8;8;
69123;PMS5003;56232;53.384;-2.732;2022-12-07T08:33:52;8;6;
69123;PMS5003;56232;53.384;-2.732;2022-12-07T08:36:18;5;5;
69123;PMS5003;56232;53.384;-2.732;2022-12-07T08:38:43;5;5;
69123;PMS5003;56232;53.384;-2.732;2022-12-07T08:41:09;6;6;
69123;PMS5003;56232;53.384;-2.732;2022-12-07T08:43:34;7;7;
69123;PMS5003;56232;53.384;-2.732;2022-12-07T08:46:02;6;6;
69123;PMS5003;56232;53.384;-2.732;2022-12-07T08:48:25;8;6;
69123;PMS5003;56232;53.384;-2.732;2022-12-07T08:50:51;8;8;
69123;PMS5003;56232;53.384;-2.732;2022-12-07T08:53:16;6;6;
69123;PMS5003;56232;53.384;-2.732;2022-12-07T08:55:42;9;8;
69123;PMS5003;56232;53.384;-2.732;2022-12-07T08:58:07;6;6;
69123;PMS5003;56232;53.384;-2.732;2022-12-07T09:00:32;8;8;
69123;PMS5003;56232;53.384;-2.732;2022-12-07T09:02:57;9;9;
69123;PMS5003;56232;53.384;-2.732;2022-12-07T09:05:22;15;11;
69123;PMS5003;56232;53.384;-2.732;2022-12-07T09:07:48;8;8;
69123;PMS5003;56232;53.384;-2.732;2022-12-07T09:10:13;9;9;
69123;PMS5003;56232;53.384;-2.732;2022-12-07T09:12:40;11;10;
69123;PMS5003;56232;53.384;-2.732;2022-12-07T09:15:04;9;9;
69123;PMS5003;56232;53.384;-2.732;2022-12-07T09:17:31;17;15;
69123;PMS5003;56232;53.384;-2.732;2022-12-07T09:19:55;25;19;
69123;PMS5003;56232;53.384;-2.732;2022-12-07T09:22:20;21;20;
69123;PMS5003;56232;53.384;-2.732;2022-12-07T09:24:46;19;17;
69123;PMS5003;56232;53.384;-2.732;2022-12-07T09:27:12;18;17;
69123;PMS5003;56232;53.384;-2.732;2022-12-07T09:29:38;18;15;
69123;PMS5003;56232;53.384;-2.732;2022-12-07T09:32:04;20;19;
69123;PMS5003;56232;53.384;-2.732;2022-12-07T09:34:30;19;16;
69123;PMS5003;56232;53.384;-2.732;2022-12-07T09:36:55;19;17;
69123;PMS5003;56232;53.384;-2.732;2022-12-07T09:39:21;17;16;
69123;PMS5003;56232;53.384;-2.732;2022-12-07T09:41:46;15;15;
69123;PMS5003;56232;53.384;-2.732;2022-12-07T09:44:13;19;18;
69123;PMS5003;56232;53.384;-2.732;2022-12-07T09:46:39;26;23;
69123;PMS5003;56232;53.384;-2.732;2022-12-07T09:49:03;23;16;
69123;PMS5003;56232;53.384;-2.732;2022-12-07T09:51:29;31;26;
69123;PMS5003;56232;53.384;-2.732;2022-12-07T09:53:55;14;13;
69123;PMS5003;56232;53.384;-2.732;2022-12-07T09:56:20;9;8;
69123;PMS5003;56232;53.384;-2.732;2022-12-07T09:58:45;12;11;
69123;PMS5003;56232;53.384;-2.732;2022-12-07T10:01:12;10;8;
69123;PMS5003;56232;53.384;-2.732;2022-12-07T10:03:37;6;6;
69123;PMS5003;56232;53.384;-2.732;2022-12-07T10:06:02;6;5;
69123;PMS5003;56232;53.384;-2.732;2022-12-07T10:08:27;5;4;
69123;PMS5003;56232;53.384;-2.732;2022-12-07T10:10:54;10;8;
69123;PMS5003;56232;53.384;-2.732;2022-12-07T10:13:19;7;7;
69123;PMS5003;56232;53.384;-2.732;2022-12-07T10:15:45;14;11;
69123;PMS5003;56232;53.384;-2.732;2022-12-07T10:20:35;5;5;
69123;PMS5003;56232;53.384;-2.732;2022-12-07T10:23:01;6;6;
69123;PMS5003;56232;53.384;-2.732;2022-12-07T10:25:27;5;4;
69123;PMS5003;56232;53.384;-2.732;2022-12-07T10:30:17;8;7;
69123;PMS5003;56232;53.384;-2.732;2022-12-07T10:32:42;6;6;
69123;PMS5003;56232;53.384;-2.732;2022-12-07T10:37:32;6;6;
69123;PMS5003;56232;53.384;-2.732;2022-12-07T10:39:57;5;4;
69123;PMS5003;56232;53.384;-2.732;2022-12-07T10:42:24;5;5;
69123;PMS5003;56232;53.384;-2.732;2022-12-07T10:44:49;5;4;
69123;PMS5003;56232;53.384;-2.732;2022-12-07T10:47:18;7;6;
69123;PMS5003;56232;53.384;-2.732;2022-12-07T10:49:44;8;8;
69123;PMS5003;56232;53.384;-2.732;2022-12-07T10:52:06;5;4;
69123;PMS5003;56232;53.384;-2.732;2022-12-07T10:54:32;5;5;
69123;PMS5003;56232;53.384;-2.732;2022-12-07T10:56:59;4;3;
69123;PMS5003;56232;53.384;-2.732;2022-12-07T10:59:30;7;6;
69123;PMS5003;56232;53.384;-2.732;2022-12-07T11:01:49;5;4;
69123;PMS5003;56232;53.384;-2.732;2022-12-07T11:04:17;7;6;
69123;PMS5003;56232;53.384;-2.732;2022-12-07T11:06:41;8;5;
69123;PMS5003;56232;53.384;-2.732;2022-12-07T11:11:33;8;6;
69123;PMS5003;56232;53.384;-2.732;2022-12-07T11:13:59;5;5;
69123;PMS5003;56232;53.384;-2.732;2022-12-07T11:16:24;7;6;
69123;PMS5003;56232;53.384;-2.732;2022-12-07T11:18:51;8;7;
69123;PMS5003;56232;53.384;-2.732;2022-12-07T11:21:16;7;7;
69123;PMS5003;56232;53.384;-2.732;2022-12-07T11:23:44;7;6;
69123;PMS5003;56232;53.384;-2.732;2022-12-07T11:26:07;6;6;
69123;PMS5003;56232;53.384;-2.732;2022-12-07T11:28:37;6;6;
69123;PMS5003;56232;53.384;-2.732;2022-12-07T11:31:00;5;5;
69123;PMS5003;56232;53.384;-2.732;2022-12-07T11:33:25;7;7;
69123;PMS5003;56232;53.384;-2.732;2022-12-07T11:35:52;7;6;
69123;PMS5003;56232;53.384;-2.732;2022-12-07T11:38:15;5;5;
69123;PMS5003;56232;53.384;-2.732;2022-12-07T11:40:41;4;4;
69123;PMS5003;56232;53.384;-2.732;2022-12-07T11:43:09;6;5;
69123;PMS5003;56232;53.384;-2.732;2022-12-07T11:45:32;4;3;
69123;PMS5003;56232;53.384;-2.732;2022-12-07T11:47:58;5;4;
69123;PMS5003;56232;53.384;-2.732;2022-12-07T11:50:25;6;5;
69123;PMS5003;56232;53.384;-2.732;2022-12-07T11:52:51;5;5;
69123;PMS5003;56232;53.384;-2.732;2022-12-07T11:55:18;4;4;
69123;PMS5003;56232;53.384;-2.732;2022-12-07T11:57:41;6;6;
69123;PMS5003;56232;53.384;-2.732;2022-12-07T12:00:12;5;5;
69123;PMS5003;56232;53.384;-2.732;2022-12-07T12:02:34;6;6;
69123;PMS5003;56232;53.384;-2.732;2022-12-07T12:04:59;5;5;
69123;PMS5003;56232;53.384;-2.732;2022-12-07T12:07:26;4;4;
69123;PMS5003;56232;53.384;-2.732;2022-12-07T12:09:51;4;4;
69123;PMS5003;56232;53.384;-2.732;2022-12-07T12:12:21;5;5;
69123;PMS5003;56232;53.384;-2.732;2022-12-07T12:14:45;5;5;
69123;PMS5003;56232;53.384;-2.732;2022-12-07T12:17:13;5;5;
69123;PMS5003;56232;53.384;-2.732;2022-12-07T12:19:34;7;7;
69123;PMS5003;56232;53.384;-2.732;2022-12-07T12:22:01;4;4;
69123;PMS5003;56232;53.384;-2.732;2022-12-07T12:24:25;7;7;
69123;PMS5003;56232;53.384;-2.732;2022-12-07T12:26:51;8;7;
69123;PMS5003;56232;53.384;-2.732;2022-12-07T12:29:20;9;8;
69123;PMS5003;56232;53.384;-2.732;2022-12-07T12:31:42;8;7;
69123;PMS5003;56232;53.384;-2.732;2022-12-07T12:43:51;4;4;
69123;PMS5003;56232;53.384;-2.732;2022-12-07T12:48:43;5;4;
69123;PMS5003;56232;53.384;-2.732;2022-12-07T12:53:34;4;3;
69123;PMS5003;56232;53.384;-2.732;2022-12-07T12:58:31;3;3;
69123;PMS5003;56232;53.384;-2.732;2022-12-07T13:03:21;6;5;
69123;PMS5003;56232;53.384;-2.732;2022-12-07T13:05:42;2;2;
69123;PMS5003;56232;53.384;-2.732;2022-12-07T13:08:11;4;2;
69123;PMS5003;56232;53.384;-2.732;2022-12-07T13:10:38;1;1;
69123;PMS5003;56232;53.384;-2.732;2022-12-07T13:13:00;2;2;
69123;PMS5003;56232;53.384;-2.732;2022-12-07T13:17:55;6;5;
69123;PMS5003;56232;53.384;-2.732;2022-12-07T13:25:09;2;2;
69123;PMS5003;56232;53.384;-2.732;2022-12-07T13:27:33;3;2;
69123;PMS5003;56232;53.384;-2.732;2022-12-07T13:29:59;1;1;
69123;PMS5003;56232;53.384;-2.732;2022-12-07T13:32:25;2;2;
69123;PMS5003;56232;53.384;-2.732;2022-12-07T13:34:51;1;1;
69123;PMS5003;56232;53.384;-2.732;2022-12-07T13:37:18;5;4;
69123;PMS5003;56232;53.384;-2.732;2022-12-07T13:39:44;2;2;
69123;PMS5003;56232;53.384;-2.732;2022-12-07T13:42:12;2;2;
69123;PMS5003;56232;53.384;-2.732;2022-12-07T13:44:34;3;3;
69123;PMS5003;56232;53.384;-2.732;2022-12-07T13:47:01;4;3;
69123;PMS5003;56232;53.384;-2.732;2022-12-07T13:49:26;2;2;
69123;PMS5003;56232;53.384;-2.732;2022-12-07T13:51:51;2;2;
69123;PMS5003;56232;53.384;-2.732;2022-12-07T13:54:17;2;2;
69123;PMS5003;56232;53.384;-2.732;2022-12-07T13:56:43;4;3;
69123;PMS5003;56232;53.384;-2.732;2022-12-07T13:59:12;2;2;
69123;PMS5003;56232;53.384;-2.732;2022-12-07T14:01:34;2;2;
69123;PMS5003;56232;53.384;-2.732;2022-12-07T14:06:26;3;3;
69123;PMS5003;56232;53.384;-2.732;2022-12-07T14:11:18;2;2;
69123;PMS5003;56232;53.384;-2.732;2022-12-07T14:13:47;3;3;
69123;PMS5003;56232;53.384;-2.732;2022-12-07T14:18:36;5;5;
69123;PMS5003;56232;53.384;-2.732;2022-12-07T14:21:02;6;5;
69123;PMS5003;56232;53.384;-2.732;2022-12-07T14:23:26;5;5;
69123;PMS5003;56232;53.384;-2.732;2022-12-07T14:25:53;6;5;
69123;PMS5003;56232;53.384;-2.732;2022-12-07T14:30:43;5;5;
69123;PMS5003;56232;53.384;-2.732;2022-12-07T14:33:09;5;5;
69123;PMS5003;56232;53.384;-2.732;2022-12-07T14:35:35;5;3;
69123;PMS5003;56232;53.384;-2.732;2022-12-07T14:38:01;3;3;
69123;PMS5003;56232;53.384;-2.732;2022-12-07T14:40:27;7;6;
69123;PMS5003;56232;53.384;-2.732;2022-12-07T14:42:53;7;7;
69123;PMS5003;56232;53.384;-2.732;2022-12-07T14:45:18;5;3;
69123;PMS5003;56232;53.384;-2.732;2022-12-07T14:47:44;5;5;
69123;PMS5003;56232;53.384;-2.732;2022-12-07T14:50:11;3;3;
69123;PMS5003;56232;53.384;-2.732;2022-12-07T14:52:35;3;3;
69123;PMS5003;56232;53.384;-2.732;2022-12-07T14:55:01;5;4;
69123;PMS5003;56232;53.384;-2.732;2022-12-07T14:57:27;3;3;
69123;PMS5003;56232;53.384;-2.732;2022-12-07T14:59:52;5;4;
69123;PMS5003;56232;53.384;-2.732;2022-12-07T15:02:18;7;6;
69123;PMS5003;56232;53.384;-2.732;2022-12-07T15:04:44;6;6;
69123;PMS5003;56232;53.384;-2.732;2022-12-07T15:07:12;6;6;
69123;PMS5003;56232;53.384;-2.732;2022-12-07T15:09:35;9;7;
69123;PMS5003;56232;53.384;-2.732;2022-12-07T15:12:01;7;7;
69123;PMS5003;56232;53.384;-2.732;2022-12-07T15:14:27;7;6;
69123;PMS5003;56232;53.384;-2.732;2022-12-07T15:16:52;5;5;
69123;PMS5003;56232;53.384;-2.732;2022-12-07T15:19:19;8;8;
69123;PMS5003;56232;53.384;-2.732;2022-12-07T15:21:44;8;6;
69123;PMS5003;56232;53.384;-2.732;2022-12-07T15:24:10;7;7;
69123;PMS5003;56232;53.384;-2.732;2022-12-07T15:26:36;5;5;
69123;PMS5003;56232;53.384;-2.732;2022-12-07T15:29:02;8;8;
69123;PMS5003;56232;53.384;-2.732;2022-12-07T15:31:27;5;5;
69123;PMS5003;56232;53.384;-2.732;2022-12-07T15:33:53;6;6;
69123;PMS5003;56232;53.384;-2.732;2022-12-07T15:36:19;6;6;
69123;PMS5003;56232;53.384;-2.732;2022-12-07T15:38:45;8;7;
69123;PMS5003;56232;53.384;-2.732;2022-12-07T15:41:10;7;6;
69123;PMS5003;56232;53.384;-2.732;2022-12-07T15:43:36;8;7;
69123;PMS5003;56232;53.384;-2.732;2022-12-07T15:46:02;7;7;
69123;PMS5003;56232;53.384;-2.732;2022-12-07T15:48:28;9;8;
69123;PMS5003;56232;53.384;-2.732;2022-12-07T15:50:54;8;7;
69123;PMS5003;56232;53.384;-2.732;2022-12-07T15:53:19;7;7;
69123;PMS5003;56232;53.384;-2.732;2022-12-07T15:55:45;7;7;
69123;PMS5003;56232;53.384;-2.732;2022-12-07T15:58:11;8;7;
69123;PMS5003;56232;53.384;-2.732;2022-12-07T16:00:37;9;9;
69123;PMS5003;56232;53.384;-2.732;2022-12-07T16:03:03;8;7;
69123;PMS5003;56232;53.384;-2.732;2022-12-07T16:05:28;9;8;
69123;PMS5003;56232;53.384;-2.732;2022-12-07T16:07:54;11;11;
69123;PMS5003;56232;53.384;-2.732;2022-12-07T16:10:20;11;9;
69123;PMS5003;56232;53.384;-2.732;2022-12-07T16:12:46;11;9;
69123;PMS5003;56232;53.384;-2.732;2022-12-07T16:15:12;12;11;
69123;PMS5003;56232;53.384;-2.732;2022-12-07T16:17:37;12;11;
69123;PMS5003;56232;53.384;-2.732;2022-12-07T16:20:03;22;18;
69123;PMS5003;56232;53.384;-2.732;2022-12-07T16:22:28;17;16;
69123;PMS5003;56232;53.384;-2.732;2022-12-07T16:24:54;20;16;
69123;PMS5003;56232;53.384;-2.732;2022-12-07T16:27:19;18;17;
69123;PMS5003;56232;53.384;-2.732;2022-12-07T16:29:44;16;15;
69123;PMS5003;56232;53.384;-2.732;2022-12-07T16:32:10;23;19;
69123;PMS5003;56232;53.384;-2.732;2022-12-07T16:34:36;20;20;
69123;PMS5003;56232;53.384;-2.732;2022-12-07T16:37:01;19;17;
69123;PMS5003;56232;53.384;-2.732;2022-12-07T16:39:32;21;20;
69123;PMS5003;56232;53.384;-2.732;2022-12-07T16:41:52;25;23;
69123;PMS5003;56232;53.384;-2.732;2022-12-07T16:44:17;29;27;
69123;PMS5003;56232;53.384;-2.732;2022-12-07T16:46:43;40;34;
69123;PMS5003;56232;53.384;-2.732;2022-12-07T16:49:09;47;45;
69123;PMS5003;56232;53.384;-2.732;2022-12-07T16:51:33;44;41;
69123;PMS5003;56232;53.384;-2.732;2022-12-07T16:53:58;44;42;
69123;PMS5003;56232;53.384;-2.732;2022-12-07T16:56:24;55;48;
69123;PMS5003;56232;53.384;-2.732;2022-12-07T16:58:49;61;60;